sensor_id;sensor_type;location;lat;lon;timestamp;P1;durP1;ratioP1;P2;durP2;ratioP2
17987;SDS011;9119;50.932;5.342;2023-05-23T00:02:07;48.83;;;24.40;;
17987;SDS011;9119;50.932;5.342;2023-05-23T00:04:34;59.47;;;29.30;;
17987;SDS011;9119;50.932;5.342;2023-05-23T00:07:02;58.63;;;30.03;;
17987;SDS011;9119;50.932;5.342;2023-05-23T00:09:28;56.60;;;28.50;;
17987;SDS011;9119;50.932;5.342;2023-05-23T00:11:54;53.17;;;27.77;;
17987;SDS011;9119;50.932;5.342;2023-05-23T00:14:20;55.07;;;27.70;;
17987;SDS011;9119;50.932;5.342;2023-05-23T00:16:47;58.23;;;29.57;;
17987;SDS011;9119;50.932;5.342;2023-05-23T00:19:13;54.17;;;28.47;;
17987;SDS011;9119;50.932;5.342;2023-05-23T00:21:40;59.90;;;30.90;;
17987;SDS011;9119;50.932;5.342;2023-05-23T00:24:07;61.63;;;29.57;;
17987;SDS011;9119;50.932;5.342;2023-05-23T00:26:34;58.80;;;28.73;;
17987;SDS011;9119;50.932;5.342;2023-05-23T00:29:00;57.80;;;30.23;;
17987;SDS011;9119;50.932;5.342;2023-05-23T00:31:26;62.03;;;31.00;;
17987;SDS011;9119;50.932;5.342;2023-05-23T00:33:52;64.83;;;30.87;;
17987;SDS011;9119;50.932;5.342;2023-05-23T00:36:17;70.90;;;32.63;;
17987;SDS011;9119;50.932;5.342;2023-05-23T00:38:43;66.47;;;32.90;;
17987;SDS011;9119;50.932;5.342;2023-05-23T00:41:12;64.13;;;30.50;;
17987;SDS011;9119;50.932;5.342;2023-05-23T00:43:37;71.53;;;31.90;;
17987;SDS011;9119;50.932;5.342;2023-05-23T00:46:03;58.60;;;30.77;;
17987;SDS011;9119;50.932;5.342;2023-05-23T00:48:29;60.03;;;30.70;;
17987;SDS011;9119;50.932;5.342;2023-05-23T00:50:55;59.47;;;30.63;;
17987;SDS011;9119;50.932;5.342;2023-05-23T00:53:21;62.37;;;30.23;;
17987;SDS011;9119;50.932;5.342;2023-05-23T00:55:47;61.87;;;29.23;;
17987;SDS011;9119;50.932;5.342;2023-05-23T00:58:13;63.10;;;29.07;;
17987;SDS011;9119;50.932;5.342;2023-05-23T01:00:40;58.37;;;28.57;;
17987;SDS011;9119;50.932;5.342;2023-05-23T01:03:06;56.67;;;27.47;;
17987;SDS011;9119;50.932;5.342;2023-05-23T01:05:32;58.03;;;29.23;;
17987;SDS011;9119;50.932;5.342;2023-05-23T01:07:57;58.23;;;28.63;;
17987;SDS011;9119;50.932;5.342;2023-05-23T01:10:27;66.30;;;31.27;;
17987;SDS011;9119;50.932;5.342;2023-05-23T01:15:54;66.03;;;29.73;;
17987;SDS011;9119;50.932;5.342;2023-05-23T01:18:42;56.70;;;27.43;;
17987;SDS011;9119;50.932;5.342;2023-05-23T01:21:18;50.33;;;24.83;;
17987;SDS011;9119;50.932;5.342;2023-05-23T01:26:37;48.23;;;24.37;;
17987;SDS011;9119;50.932;5.342;2023-05-23T01:29:42;41.93;;;22.60;;
17987;SDS011;9119;50.932;5.342;2023-05-23T01:32:08;43.27;;;22.97;;
17987;SDS011;9119;50.932;5.342;2023-05-23T01:34:35;41.83;;;22.90;;
17987;SDS011;9119;50.932;5.342;2023-05-23T01:37:06;40.70;;;22.40;;
17987;SDS011;9119;50.932;5.342;2023-05-23T01:39:38;46.47;;;23.57;;
17987;SDS011;9119;50.932;5.342;2023-05-23T01:42:04;44.17;;;23.00;;
17987;SDS011;9119;50.932;5.342;2023-05-23T01:44:31;40.27;;;21.07;;
17987;SDS011;9119;50.932;5.342;2023-05-23T01:46:58;41.93;;;22.17;;
17987;SDS011;9119;50.932;5.342;2023-05-23T01:49:25;44.13;;;23.10;;
17987;SDS011;9119;50.932;5.342;2023-05-23T01:51:52;42.60;;;21.70;;
17987;SDS011;9119;50.932;5.342;2023-05-23T01:54:18;41.20;;;22.00;;
17987;SDS011;9119;50.932;5.342;2023-05-23T01:56:44;45.20;;;22.67;;
17987;SDS011;9119;50.932;5.342;2023-05-23T01:59:10;43.87;;;23.67;;
17987;SDS011;9119;50.932;5.342;2023-05-23T02:01:36;45.93;;;23.97;;
17987;SDS011;9119;50.932;5.342;2023-05-23T02:04:03;43.80;;;21.93;;
17987;SDS011;9119;50.932;5.342;2023-05-23T02:06:29;48.30;;;23.60;;
17987;SDS011;9119;50.932;5.342;2023-05-23T02:08:55;37.80;;;21.87;;
17987;SDS011;9119;50.932;5.342;2023-05-23T02:11:21;53.37;;;23.97;;
17987;SDS011;9119;50.932;5.342;2023-05-23T02:13:47;40.33;;;23.80;;
17987;SDS011;9119;50.932;5.342;2023-05-23T02:16:12;44.43;;;22.87;;
17987;SDS011;9119;50.932;5.342;2023-05-23T02:18:38;45.23;;;23.47;;
17987;SDS011;9119;50.932;5.342;2023-05-23T02:21:04;44.20;;;23.77;;
17987;SDS011;9119;50.932;5.342;2023-05-23T02:23:30;42.50;;;22.60;;
17987;SDS011;9119;50.932;5.342;2023-05-23T02:25:56;40.27;;;22.47;;
17987;SDS011;9119;50.932;5.342;2023-05-23T02:28:21;37.40;;;20.97;;
17987;SDS011;9119;50.932;5.342;2023-05-23T02:30:47;38.60;;;20.50;;
17987;SDS011;9119;50.932;5.342;2023-05-23T02:33:13;36.03;;;18.90;;
17987;SDS011;9119;50.932;5.342;2023-05-23T02:35:38;32.47;;;18.07;;
17987;SDS011;9119;50.932;5.342;2023-05-23T02:38:04;29.70;;;15.97;;
17987;SDS011;9119;50.932;5.342;2023-05-23T02:40:30;27.77;;;14.70;;
17987;SDS011;9119;50.932;5.342;2023-05-23T02:42:55;25.07;;;13.57;;
17987;SDS011;9119;50.932;5.342;2023-05-23T02:45:22;25.40;;;12.83;;
17987;SDS011;9119;50.932;5.342;2023-05-23T02:47:48;29.83;;;14.17;;
17987;SDS011;9119;50.932;5.342;2023-05-23T02:50:14;24.13;;;13.03;;
17987;SDS011;9119;50.932;5.342;2023-05-23T02:52:40;23.50;;;12.17;;
17987;SDS011;9119;50.932;5.342;2023-05-23T02:55:06;20.40;;;13.07;;
17987;SDS011;9119;50.932;5.342;2023-05-23T02:57:33;30.10;;;13.10;;
17987;SDS011;9119;50.932;5.342;2023-05-23T02:59:58;22.90;;;12.60;;
17987;SDS011;9119;50.932;5.342;2023-05-23T03:02:24;24.57;;;12.67;;
17987;SDS011;9119;50.932;5.342;2023-05-23T03:04:50;27.10;;;13.23;;
17987;SDS011;9119;50.932;5.342;2023-05-23T03:07:16;29.23;;;13.90;;
17987;SDS011;9119;50.932;5.342;2023-05-23T03:09:42;26.47;;;13.20;;
17987;SDS011;9119;50.932;5.342;2023-05-23T03:12:07;22.63;;;12.90;;
17987;SDS011;9119;50.932;5.342;2023-05-23T03:14:33;26.20;;;12.67;;
17987;SDS011;9119;50.932;5.342;2023-05-23T03:16:59;28.90;;;12.90;;
17987;SDS011;9119;50.932;5.342;2023-05-23T03:19:24;27.30;;;13.00;;
17987;SDS011;9119;50.932;5.342;2023-05-23T03:21:50;24.40;;;12.40;;
17987;SDS011;9119;50.932;5.342;2023-05-23T03:24:16;30.33;;;13.33;;
17987;SDS011;9119;50.932;5.342;2023-05-23T03:26:42;41.30;;;15.30;;
17987;SDS011;9119;50.932;5.342;2023-05-23T03:29:07;36.40;;;13.93;;
17987;SDS011;9119;50.932;5.342;2023-05-23T03:31:35;31.90;;;14.20;;
17987;SDS011;9119;50.932;5.342;2023-05-23T03:34:01;37.90;;;14.53;;
17987;SDS011;9119;50.932;5.342;2023-05-23T03:36:29;34.10;;;14.47;;
17987;SDS011;9119;50.932;5.342;2023-05-23T03:38:57;37.87;;;12.90;;
17987;SDS011;9119;50.932;5.342;2023-05-23T03:41:23;30.03;;;13.33;;
17987;SDS011;9119;50.932;5.342;2023-05-23T03:43:48;35.80;;;14.83;;
17987;SDS011;9119;50.932;5.342;2023-05-23T03:46:14;31.07;;;13.73;;
17987;SDS011;9119;50.932;5.342;2023-05-23T03:48:40;28.23;;;13.63;;
17987;SDS011;9119;50.932;5.342;2023-05-23T03:51:06;31.37;;;14.83;;
17987;SDS011;9119;50.932;5.342;2023-05-23T03:53:31;35.57;;;15.03;;
17987;SDS011;9119;50.932;5.342;2023-05-23T03:55:57;34.20;;;14.83;;
17987;SDS011;9119;50.932;5.342;2023-05-23T03:58:22;31.70;;;15.17;;
17987;SDS011;9119;50.932;5.342;2023-05-23T04:00:48;42.67;;;15.73;;
17987;SDS011;9119;50.932;5.342;2023-05-23T04:03:14;36.07;;;14.07;;
17987;SDS011;9119;50.932;5.342;2023-05-23T04:05:41;37.60;;;15.43;;
17987;SDS011;9119;50.932;5.342;2023-05-23T04:08:07;30.87;;;14.70;;
17987;SDS011;9119;50.932;5.342;2023-05-23T04:10:33;41.53;;;16.90;;
17987;SDS011;9119;50.932;5.342;2023-05-23T04:12:59;47.03;;;16.03;;
17987;SDS011;9119;50.932;5.342;2023-05-23T04:15:25;39.43;;;16.73;;
17987;SDS011;9119;50.932;5.342;2023-05-23T04:17:52;34.07;;;15.10;;
17987;SDS011;9119;50.932;5.342;2023-05-23T04:20:18;35.87;;;15.60;;
17987;SDS011;9119;50.932;5.342;2023-05-23T04:22:43;39.87;;;15.50;;
17987;SDS011;9119;50.932;5.342;2023-05-23T04:25:09;35.83;;;15.20;;
17987;SDS011;9119;50.932;5.342;2023-05-23T04:27:35;29.83;;;15.30;;
17987;SDS011;9119;50.932;5.342;2023-05-23T04:30:04;35.50;;;13.93;;
17987;SDS011;9119;50.932;5.342;2023-05-23T04:32:33;29.10;;;14.00;;
17987;SDS011;9119;50.932;5.342;2023-05-23T04:34:59;32.17;;;15.20;;
17987;SDS011;9119;50.932;5.342;2023-05-23T04:37:26;36.30;;;13.97;;
17987;SDS011;9119;50.932;5.342;2023-05-23T04:39:52;23.93;;;12.53;;
17987;SDS011;9119;50.932;5.342;2023-05-23T04:42:18;32.93;;;12.70;;
17987;SDS011;9119;50.932;5.342;2023-05-23T04:44:48;26.57;;;12.33;;
17987;SDS011;9119;50.932;5.342;2023-05-23T04:47:15;26.57;;;12.77;;
17987;SDS011;9119;50.932;5.342;2023-05-23T04:49:41;26.17;;;12.13;;
17987;SDS011;9119;50.932;5.342;2023-05-23T04:52:07;29.40;;;12.10;;
17987;SDS011;9119;50.932;5.342;2023-05-23T04:54:33;30.03;;;12.47;;
17987;SDS011;9119;50.932;5.342;2023-05-23T04:57:00;25.90;;;10.90;;
17987;SDS011;9119;50.932;5.342;2023-05-23T04:59:26;27.70;;;10.87;;
17987;SDS011;9119;50.932;5.342;2023-05-23T05:01:51;23.07;;;11.00;;
17987;SDS011;9119;50.932;5.342;2023-05-23T05:04:17;24.87;;;11.50;;
17987;SDS011;9119;50.932;5.342;2023-05-23T05:06:42;25.40;;;11.37;;
17987;SDS011;9119;50.932;5.342;2023-05-23T05:09:08;25.53;;;11.07;;
17987;SDS011;9119;50.932;5.342;2023-05-23T05:11:34;24.70;;;10.70;;
17987;SDS011;9119;50.932;5.342;2023-05-23T05:13:59;9.23;;;5.07;;
17987;SDS011;9119;50.932;5.342;2023-05-23T05:16:25;27.57;;;10.83;;
17987;SDS011;9119;50.932;5.342;2023-05-23T05:18:51;31.97;;;12.03;;
17987;SDS011;9119;50.932;5.342;2023-05-23T05:21:16;31.97;;;12.93;;
17987;SDS011;9119;50.932;5.342;2023-05-23T05:23:42;26.30;;;11.83;;
17987;SDS011;9119;50.932;5.342;2023-05-23T05:26:08;28.57;;;11.73;;
17987;SDS011;9119;50.932;5.342;2023-05-23T05:28:34;26.07;;;11.47;;
17987;SDS011;9119;50.932;5.342;2023-05-23T05:31:00;29.53;;;12.40;;
17987;SDS011;9119;50.932;5.342;2023-05-23T05:33:29;26.47;;;11.60;;
17987;SDS011;9119;50.932;5.342;2023-05-23T05:36:00;30.50;;;12.63;;
17987;SDS011;9119;50.932;5.342;2023-05-23T05:38:26;29.00;;;12.20;;
17987;SDS011;9119;50.932;5.342;2023-05-23T05:40:52;33.47;;;13.67;;
17987;SDS011;9119;50.932;5.342;2023-05-23T05:43:18;26.97;;;13.80;;
17987;SDS011;9119;50.932;5.342;2023-05-23T05:45:43;28.60;;;12.63;;
17987;SDS011;9119;50.932;5.342;2023-05-23T05:48:09;35.37;;;15.30;;
17987;SDS011;9119;50.932;5.342;2023-05-23T05:50:35;31.27;;;14.47;;
17987;SDS011;9119;50.932;5.342;2023-05-23T05:53:01;42.03;;;13.27;;
17987;SDS011;9119;50.932;5.342;2023-05-23T05:55:28;27.73;;;12.40;;
17987;SDS011;9119;50.932;5.342;2023-05-23T05:57:53;20.30;;;11.97;;
17987;SDS011;9119;50.932;5.342;2023-05-23T06:00:19;27.10;;;12.50;;
17987;SDS011;9119;50.932;5.342;2023-05-23T06:02:46;31.30;;;11.73;;
17987;SDS011;9119;50.932;5.342;2023-05-23T06:05:12;31.73;;;13.20;;
17987;SDS011;9119;50.932;5.342;2023-05-23T06:07:40;28.70;;;11.47;;
17987;SDS011;9119;50.932;5.342;2023-05-23T06:10:07;29.40;;;11.60;;
17987;SDS011;9119;50.932;5.342;2023-05-23T06:12:33;34.80;;;12.43;;
17987;SDS011;9119;50.932;5.342;2023-05-23T06:14:59;31.30;;;13.20;;
17987;SDS011;9119;50.932;5.342;2023-05-23T06:17:25;38.43;;;14.13;;
17987;SDS011;9119;50.932;5.342;2023-05-23T06:19:51;26.97;;;13.20;;
17987;SDS011;9119;50.932;5.342;2023-05-23T06:22:18;34.30;;;14.97;;
17987;SDS011;9119;50.932;5.342;2023-05-23T06:24:44;32.10;;;12.97;;
17987;SDS011;9119;50.932;5.342;2023-05-23T06:27:10;38.63;;;14.67;;
17987;SDS011;9119;50.932;5.342;2023-05-23T06:29:37;37.70;;;14.50;;
17987;SDS011;9119;50.932;5.342;2023-05-23T06:32:02;46.60;;;15.47;;
17987;SDS011;9119;50.932;5.342;2023-05-23T06:34:28;39.77;;;16.33;;
17987;SDS011;9119;50.932;5.342;2023-05-23T06:36:54;37.67;;;19.20;;
17987;SDS011;9119;50.932;5.342;2023-05-23T06:39:20;47.40;;;22.87;;
17987;SDS011;9119;50.932;5.342;2023-05-23T06:41:46;43.30;;;15.20;;
17987;SDS011;9119;50.932;5.342;2023-05-23T06:44:12;42.93;;;17.13;;
17987;SDS011;9119;50.932;5.342;2023-05-23T06:46:38;31.03;;;14.57;;
17987;SDS011;9119;50.932;5.342;2023-05-23T06:49:03;36.63;;;15.00;;
17987;SDS011;9119;50.932;5.342;2023-05-23T06:51:29;34.57;;;16.03;;
17987;SDS011;9119;50.932;5.342;2023-05-23T06:53:55;45.37;;;16.07;;
17987;SDS011;9119;50.932;5.342;2023-05-23T06:56:24;51.73;;;18.67;;
17987;SDS011;9119;50.932;5.342;2023-05-23T06:58:50;44.43;;;19.23;;
17987;SDS011;9119;50.932;5.342;2023-05-23T07:01:15;52.33;;;18.80;;
17987;SDS011;9119;50.932;5.342;2023-05-23T07:03:41;50.27;;;18.30;;
17987;SDS011;9119;50.932;5.342;2023-05-23T07:06:09;50.63;;;19.37;;
17987;SDS011;9119;50.932;5.342;2023-05-23T07:08:35;46.97;;;18.97;;
17987;SDS011;9119;50.932;5.342;2023-05-23T07:11:01;44.40;;;17.43;;
17987;SDS011;9119;50.932;5.342;2023-05-23T07:13:27;42.67;;;16.07;;
17987;SDS011;9119;50.932;5.342;2023-05-23T07:15:53;38.57;;;15.67;;
17987;SDS011;9119;50.932;5.342;2023-05-23T07:18:19;38.63;;;15.00;;
17987;SDS011;9119;50.932;5.342;2023-05-23T07:20:45;40.60;;;14.47;;
17987;SDS011;9119;50.932;5.342;2023-05-23T07:23:11;34.57;;;15.17;;
17987;SDS011;9119;50.932;5.342;2023-05-23T07:25:36;47.87;;;13.53;;
17987;SDS011;9119;50.932;5.342;2023-05-23T07:28:04;38.93;;;15.47;;
17987;SDS011;9119;50.932;5.342;2023-05-23T07:30:30;39.20;;;15.60;;
17987;SDS011;9119;50.932;5.342;2023-05-23T07:32:55;33.93;;;13.77;;
17987;SDS011;9119;50.932;5.342;2023-05-23T07:35:21;43.97;;;15.63;;
17987;SDS011;9119;50.932;5.342;2023-05-23T07:37:52;33.90;;;14.30;;
17987;SDS011;9119;50.932;5.342;2023-05-23T07:40:19;42.00;;;15.37;;
17987;SDS011;9119;50.932;5.342;2023-05-23T07:42:46;32.50;;;13.60;;
17987;SDS011;9119;50.932;5.342;2023-05-23T07:45:12;36.03;;;12.93;;
17987;SDS011;9119;50.932;5.342;2023-05-23T07:47:38;35.17;;;12.13;;
17987;SDS011;9119;50.932;5.342;2023-05-23T07:50:04;30.10;;;11.13;;
17987;SDS011;9119;50.932;5.342;2023-05-23T07:52:30;31.40;;;10.80;;
17987;SDS011;9119;50.932;5.342;2023-05-23T07:54:56;30.07;;;10.57;;
17987;SDS011;9119;50.932;5.342;2023-05-23T07:57:23;26.87;;;10.20;;
17987;SDS011;9119;50.932;5.342;2023-05-23T07:59:50;21.43;;;9.07;;
17987;SDS011;9119;50.932;5.342;2023-05-23T08:02:16;31.30;;;9.10;;
17987;SDS011;9119;50.932;5.342;2023-05-23T08:04:42;29.27;;;8.43;;
17987;SDS011;9119;50.932;5.342;2023-05-23T08:07:09;24.00;;;8.70;;
17987;SDS011;9119;50.932;5.342;2023-05-23T08:09:35;22.67;;;8.00;;
17987;SDS011;9119;50.932;5.342;2023-05-23T08:12:01;25.20;;;8.50;;
17987;SDS011;9119;50.932;5.342;2023-05-23T08:14:27;17.30;;;7.83;;
17987;SDS011;9119;50.932;5.342;2023-05-23T08:16:53;16.40;;;7.70;;
17987;SDS011;9119;50.932;5.342;2023-05-23T08:19:18;17.57;;;7.60;;
17987;SDS011;9119;50.932;5.342;2023-05-23T08:21:44;28.47;;;8.93;;
17987;SDS011;9119;50.932;5.342;2023-05-23T08:24:11;21.70;;;9.07;;
17987;SDS011;9119;50.932;5.342;2023-05-23T08:26:37;22.57;;;8.77;;
17987;SDS011;9119;50.932;5.342;2023-05-23T08:29:03;17.27;;;8.40;;
17987;SDS011;9119;50.932;5.342;2023-05-23T08:31:29;27.73;;;9.00;;
17987;SDS011;9119;50.932;5.342;2023-05-23T08:33:56;21.10;;;8.03;;
17987;SDS011;9119;50.932;5.342;2023-05-23T08:36:23;25.77;;;8.53;;
17987;SDS011;9119;50.932;5.342;2023-05-23T08:38:49;20.50;;;7.03;;
17987;SDS011;9119;50.932;5.342;2023-05-23T08:41:19;25.40;;;7.43;;
17987;SDS011;9119;50.932;5.342;2023-05-23T08:43:46;20.67;;;7.63;;
17987;SDS011;9119;50.932;5.342;2023-05-23T08:46:13;20.47;;;7.80;;
17987;SDS011;9119;50.932;5.342;2023-05-23T08:48:40;14.70;;;7.00;;
17987;SDS011;9119;50.932;5.342;2023-05-23T08:51:10;17.87;;;7.40;;
17987;SDS011;9119;50.932;5.342;2023-05-23T08:53:39;21.23;;;7.30;;
17987;SDS011;9119;50.932;5.342;2023-05-23T08:56:11;30.13;;;7.53;;
17987;SDS011;9119;50.932;5.342;2023-05-23T08:58:37;23.77;;;8.20;;
17987;SDS011;9119;50.932;5.342;2023-05-23T09:01:06;19.73;;;6.93;;
17987;SDS011;9119;50.932;5.342;2023-05-23T09:03:34;20.03;;;7.23;;
17987;SDS011;9119;50.932;5.342;2023-05-23T09:06:08;20.00;;;7.10;;
17987;SDS011;9119;50.932;5.342;2023-05-23T09:11:21;21.73;;;7.33;;
17987;SDS011;9119;50.932;5.342;2023-05-23T09:13:48;20.57;;;7.37;;
17987;SDS011;9119;50.932;5.342;2023-05-23T09:16:14;25.40;;;7.47;;
17987;SDS011;9119;50.932;5.342;2023-05-23T09:18:42;21.73;;;7.27;;
17987;SDS011;9119;50.932;5.342;2023-05-23T09:21:08;20.33;;;6.80;;
17987;SDS011;9119;50.932;5.342;2023-05-23T09:23:37;24.53;;;7.63;;
17987;SDS011;9119;50.932;5.342;2023-05-23T09:26:05;24.53;;;7.63;;
17987;SDS011;9119;50.932;5.342;2023-05-23T09:28:35;23.13;;;6.47;;
17987;SDS011;9119;50.932;5.342;2023-05-23T09:31:05;20.37;;;7.17;;
17987;SDS011;9119;50.932;5.342;2023-05-23T09:33:37;18.43;;;6.57;;
17987;SDS011;9119;50.932;5.342;2023-05-23T09:36:05;22.77;;;6.70;;
17987;SDS011;9119;50.932;5.342;2023-05-23T09:38:31;19.80;;;6.63;;
17987;SDS011;9119;50.932;5.342;2023-05-23T09:41:02;16.90;;;7.10;;
17987;SDS011;9119;50.932;5.342;2023-05-23T09:43:27;18.73;;;6.30;;
17987;SDS011;9119;50.932;5.342;2023-05-23T09:45:53;23.40;;;7.53;;
17987;SDS011;9119;50.932;5.342;2023-05-23T09:48:26;18.33;;;6.10;;
17987;SDS011;9119;50.932;5.342;2023-05-23T09:50:53;34.53;;;7.83;;
17987;SDS011;9119;50.932;5.342;2023-05-23T09:53:19;18.23;;;6.07;;
17987;SDS011;9119;50.932;5.342;2023-05-23T09:55:47;18.90;;;5.83;;
17987;SDS011;9119;50.932;5.342;2023-05-23T09:58:18;20.97;;;6.97;;
17987;SDS011;9119;50.932;5.342;2023-05-23T10:00:48;23.47;;;6.63;;
17987;SDS011;9119;50.932;5.342;2023-05-23T10:03:19;22.33;;;7.57;;
17987;SDS011;9119;50.932;5.342;2023-05-23T10:05:55;16.47;;;7.07;;
17987;SDS011;9119;50.932;5.342;2023-05-23T10:08:38;25.97;;;7.63;;
17987;SDS011;9119;50.932;5.342;2023-05-23T10:13:44;19.70;;;7.07;;
17987;SDS011;9119;50.932;5.342;2023-05-23T10:19:05;24.10;;;7.37;;
17987;SDS011;9119;50.932;5.342;2023-05-23T10:21:42;29.03;;;7.70;;
17987;SDS011;9119;50.932;5.342;2023-05-23T10:24:09;19.53;;;5.93;;
17987;SDS011;9119;50.932;5.342;2023-05-23T10:26:36;22.57;;;7.03;;
17987;SDS011;9119;50.932;5.342;2023-05-23T10:29:02;20.53;;;5.93;;
17987;SDS011;9119;50.932;5.342;2023-05-23T10:31:29;11.53;;;5.40;;
17987;SDS011;9119;50.932;5.342;2023-05-23T10:33:57;13.43;;;4.53;;
17987;SDS011;9119;50.932;5.342;2023-05-23T10:36:55;16.60;;;5.40;;
17987;SDS011;9119;50.932;5.342;2023-05-23T10:42:01;11.40;;;4.90;;
17987;SDS011;9119;50.932;5.342;2023-05-23T10:44:32;11.43;;;4.20;;
17987;SDS011;9119;50.932;5.342;2023-05-23T10:46:58;12.77;;;4.40;;
17987;SDS011;9119;50.932;5.342;2023-05-23T10:52:05;15.13;;;4.93;;
17987;SDS011;9119;50.932;5.342;2023-05-23T10:54:36;14.30;;;4.63;;
17987;SDS011;9119;50.932;5.342;2023-05-23T10:57:08;11.87;;;4.20;;
17987;SDS011;9119;50.932;5.342;2023-05-23T10:59:35;8.80;;;4.30;;
17987;SDS011;9119;50.932;5.342;2023-05-23T11:02:03;9.77;;;4.10;;
17987;SDS011;9119;50.932;5.342;2023-05-23T11:04:34;11.13;;;4.70;;
17987;SDS011;9119;50.932;5.342;2023-05-23T11:07:00;12.23;;;4.93;;
17987;SDS011;9119;50.932;5.342;2023-05-23T11:09:26;12.03;;;4.87;;
17987;SDS011;9119;50.932;5.342;2023-05-23T11:11:53;15.37;;;4.70;;
17987;SDS011;9119;50.932;5.342;2023-05-23T11:14:19;17.00;;;4.93;;
17987;SDS011;9119;50.932;5.342;2023-05-23T11:16:56;11.97;;;5.20;;
17987;SDS011;9119;50.932;5.342;2023-05-23T11:19:23;13.10;;;5.47;;
17987;SDS011;9119;50.932;5.342;2023-05-23T11:22:02;15.57;;;5.33;;
17987;SDS011;9119;50.932;5.342;2023-05-23T11:27:15;19.00;;;6.00;;
17987;SDS011;9119;50.932;5.342;2023-05-23T11:29:45;14.13;;;4.80;;
17987;SDS011;9119;50.932;5.342;2023-05-23T11:32:29;12.33;;;4.77;;
17987;SDS011;9119;50.932;5.342;2023-05-23T11:34:59;10.30;;;4.40;;
17987;SDS011;9119;50.932;5.342;2023-05-23T11:37:26;11.23;;;4.40;;
17987;SDS011;9119;50.932;5.342;2023-05-23T11:39:52;11.33;;;3.80;;
17987;SDS011;9119;50.932;5.342;2023-05-23T11:42:18;14.47;;;4.53;;
17987;SDS011;9119;50.932;5.342;2023-05-23T11:44:47;13.30;;;4.40;;
17987;SDS011;9119;50.932;5.342;2023-05-23T11:47:13;15.17;;;4.03;;
17987;SDS011;9119;50.932;5.342;2023-05-23T11:49:39;14.93;;;3.30;;
17987;SDS011;9119;50.932;5.342;2023-05-23T11:52:05;14.03;;;3.00;;
17987;SDS011;9119;50.932;5.342;2023-05-23T11:54:31;23.83;;;4.17;;
17987;SDS011;9119;50.932;5.342;2023-05-23T11:56:57;16.57;;;3.87;;
17987;SDS011;9119;50.932;5.342;2023-05-23T11:59:24;14.70;;;3.53;;
17987;SDS011;9119;50.932;5.342;2023-05-23T12:01:54;17.43;;;3.87;;
17987;SDS011;9119;50.932;5.342;2023-05-23T12:04:19;11.37;;;3.53;;
17987;SDS011;9119;50.932;5.342;2023-05-23T12:06:46;14.73;;;3.57;;
17987;SDS011;9119;50.932;5.342;2023-05-23T12:09:13;18.00;;;3.33;;
17987;SDS011;9119;50.932;5.342;2023-05-23T12:11:40;12.50;;;3.27;;
17987;SDS011;9119;50.932;5.342;2023-05-23T12:14:06;14.13;;;3.23;;
17987;SDS011;9119;50.932;5.342;2023-05-23T12:16:33;16.70;;;3.67;;
17987;SDS011;9119;50.932;5.342;2023-05-23T12:19:00;12.63;;;3.03;;
17987;SDS011;9119;50.932;5.342;2023-05-23T12:21:48;17.17;;;3.83;;
17987;SDS011;9119;50.932;5.342;2023-05-23T12:24:17;34.13;;;8.90;;
17987;SDS011;9119;50.932;5.342;2023-05-23T12:26:47;17.90;;;3.93;;
17987;SDS011;9119;50.932;5.342;2023-05-23T12:29:20;19.70;;;4.10;;
17987;SDS011;9119;50.932;5.342;2023-05-23T12:31:52;14.40;;;3.27;;
17987;SDS011;9119;50.932;5.342;2023-05-23T12:34:18;12.80;;;3.53;;
17987;SDS011;9119;50.932;5.342;2023-05-23T12:36:45;16.83;;;3.70;;
17987;SDS011;9119;50.932;5.342;2023-05-23T12:39:13;16.53;;;3.93;;
17987;SDS011;9119;50.932;5.342;2023-05-23T12:41:43;14.20;;;3.50;;
17987;SDS011;9119;50.932;5.342;2023-05-23T12:44:09;18.33;;;3.73;;
17987;SDS011;9119;50.932;5.342;2023-05-23T12:46:39;14.37;;;4.23;;
17987;SDS011;9119;50.932;5.342;2023-05-23T12:49:05;23.03;;;3.93;;
17987;SDS011;9119;50.932;5.342;2023-05-23T12:51:30;15.17;;;3.73;;
17987;SDS011;9119;50.932;5.342;2023-05-23T12:53:56;21.47;;;4.07;;
17987;SDS011;9119;50.932;5.342;2023-05-23T12:56:22;14.10;;;4.00;;
17987;SDS011;9119;50.932;5.342;2023-05-23T12:58:48;19.43;;;3.83;;
17987;SDS011;9119;50.932;5.342;2023-05-23T13:01:14;12.63;;;3.30;;
17987;SDS011;9119;50.932;5.342;2023-05-23T13:03:39;13.47;;;3.43;;
17987;SDS011;9119;50.932;5.342;2023-05-23T13:06:05;15.30;;;3.40;;
17987;SDS011;9119;50.932;5.342;2023-05-23T13:08:31;21.83;;;3.57;;
17987;SDS011;9119;50.932;5.342;2023-05-23T13:10:57;16.03;;;3.87;;
17987;SDS011;9119;50.932;5.342;2023-05-23T13:13:23;16.13;;;4.00;;
17987;SDS011;9119;50.932;5.342;2023-05-23T13:15:49;18.33;;;3.97;;
17987;SDS011;9119;50.932;5.342;2023-05-23T13:18:15;16.23;;;3.63;;
17987;SDS011;9119;50.932;5.342;2023-05-23T13:20:41;11.73;;;3.77;;
17987;SDS011;9119;50.932;5.342;2023-05-23T13:23:06;19.80;;;3.43;;
17987;SDS011;9119;50.932;5.342;2023-05-23T13:25:33;9.90;;;3.40;;
17987;SDS011;9119;50.932;5.342;2023-05-23T13:27:59;11.73;;;3.27;;
17987;SDS011;9119;50.932;5.342;2023-05-23T13:30:26;19.40;;;4.17;;
17987;SDS011;9119;50.932;5.342;2023-05-23T13:32:52;51.80;;;5.63;;
17987;SDS011;9119;50.932;5.342;2023-05-23T13:35:18;17.40;;;3.80;;
17987;SDS011;9119;50.932;5.342;2023-05-23T13:37:44;20.40;;;3.80;;
17987;SDS011;9119;50.932;5.342;2023-05-23T13:40:16;22.63;;;4.37;;
17987;SDS011;9119;50.932;5.342;2023-05-23T13:42:44;16.97;;;3.70;;
17987;SDS011;9119;50.932;5.342;2023-05-23T13:45:11;16.77;;;3.07;;
17987;SDS011;9119;50.932;5.342;2023-05-23T13:47:38;11.97;;;3.30;;
17987;SDS011;9119;50.932;5.342;2023-05-23T13:50:04;16.80;;;3.87;;
17987;SDS011;9119;50.932;5.342;2023-05-23T13:52:30;13.90;;;3.40;;
17987;SDS011;9119;50.932;5.342;2023-05-23T13:54:56;15.23;;;3.20;;
17987;SDS011;9119;50.932;5.342;2023-05-23T13:57:21;12.30;;;3.40;;
17987;SDS011;9119;50.932;5.342;2023-05-23T13:59:47;12.30;;;3.10;;
17987;SDS011;9119;50.932;5.342;2023-05-23T14:02:13;17.60;;;3.80;;
17987;SDS011;9119;50.932;5.342;2023-05-23T14:04:38;9.00;;;3.13;;
17987;SDS011;9119;50.932;5.342;2023-05-23T14:07:04;14.87;;;3.87;;
17987;SDS011;9119;50.932;5.342;2023-05-23T14:09:30;19.17;;;3.20;;
17987;SDS011;9119;50.932;5.342;2023-05-23T14:11:55;14.93;;;3.10;;
17987;SDS011;9119;50.932;5.342;2023-05-23T14:14:21;21.87;;;5.30;;
17987;SDS011;9119;50.932;5.342;2023-05-23T14:16:49;13.33;;;4.10;;
17987;SDS011;9119;50.932;5.342;2023-05-23T14:19:15;25.10;;;3.80;;
17987;SDS011;9119;50.932;5.342;2023-05-23T14:21:41;15.40;;;3.93;;
17987;SDS011;9119;50.932;5.342;2023-05-23T14:24:06;26.20;;;4.03;;
17987;SDS011;9119;50.932;5.342;2023-05-23T14:26:32;15.70;;;4.03;;
17987;SDS011;9119;50.932;5.342;2023-05-23T14:28:58;11.77;;;3.67;;
17987;SDS011;9119;50.932;5.342;2023-05-23T14:31:23;36.47;;;5.50;;
17987;SDS011;9119;50.932;5.342;2023-05-23T14:33:49;12.60;;;3.17;;
17987;SDS011;9119;50.932;5.342;2023-05-23T14:36:15;15.23;;;3.33;;
17987;SDS011;9119;50.932;5.342;2023-05-23T14:38:41;10.47;;;3.30;;
17987;SDS011;9119;50.932;5.342;2023-05-23T14:41:09;16.73;;;3.70;;
17987;SDS011;9119;50.932;5.342;2023-05-23T14:43:36;8.13;;;3.13;;
17987;SDS011;9119;50.932;5.342;2023-05-23T14:46:01;17.70;;;4.00;;
17987;SDS011;9119;50.932;5.342;2023-05-23T14:48:27;17.93;;;3.50;;
17987;SDS011;9119;50.932;5.342;2023-05-23T14:50:53;13.90;;;3.27;;
17987;SDS011;9119;50.932;5.342;2023-05-23T14:53:18;19.07;;;3.10;;
17987;SDS011;9119;50.932;5.342;2023-05-23T14:55:48;18.40;;;3.50;;
17987;SDS011;9119;50.932;5.342;2023-05-23T14:58:13;19.87;;;3.30;;
17987;SDS011;9119;50.932;5.342;2023-05-23T15:00:39;19.23;;;3.20;;
17987;SDS011;9119;50.932;5.342;2023-05-23T15:03:06;10.93;;;3.10;;